sensor_id;sensor_type;location;lat;lon;timestamp;temperature;humidity
51968;DHT22;75327;42.568;23.176;2024-03-29T00:28:08;8.40;99.90
51968;DHT22;75327;42.568;23.176;2024-03-29T00:43:09;8.30;99.90
51968;DHT22;75327;42.568;23.176;2024-03-29T00:58:11;8.20;99.90
51968;DHT22;75327;42.568;23.176;2024-03-29T01:13:14;8.00;99.90
51968;DHT22;75327;42.568;23.176;2024-03-29T01:28:15;7.90;99.90
51968;DHT22;75327;42.568;23.176;2024-03-29T01:43:16;7.90;99.90
51968;DHT22;75327;42.568;23.176;2024-03-29T01:58:25;8.10;99.90
51968;DHT22;75327;42.568;23.176;2024-03-29T02:13:28;8.00;99.90
51968;DHT22;75327;42.568;23.176;2024-03-29T02:28:30;7.80;99.90
51968;DHT22;75327;42.568;23.176;2024-03-29T02:58:36;7.70;99.90
51968;DHT22;75327;42.568;23.176;2024-03-29T03:13:37;7.90;99.90
51968;DHT22;75327;42.568;23.176;2024-03-29T03:28:38;7.80;99.90
51968;DHT22;75327;42.568;23.176;2024-03-29T03:43:40;7.80;99.90
51968;DHT22;75327;42.568;23.176;2024-03-29T03:58:44;7.50;99.90
51968;DHT22;75327;42.568;23.176;2024-03-29T04:13:46;7.40;99.90
51968;DHT22;75327;42.568;23.176;2024-03-29T04:28:49;7.30;99.90
51968;DHT22;75327;42.568;23.176;2024-03-29T04:43:50;7.30;99.90
51968;DHT22;75327;42.568;23.176;2024-03-29T04:58:52;7.10;99.90
51968;DHT22;75327;42.568;23.176;2024-03-29T05:13:53;7.00;99.90
51968;DHT22;75327;42.568;23.176;2024-03-29T05:28:54;7.00;99.90
51968;DHT22;75327;42.568;23.176;2024-03-29T05:44:04;7.40;99.90
51968;DHT22;75327;42.568;23.176;2024-03-29T05:59:05;7.90;99.90
51968;DHT22;75327;42.568;23.176;2024-03-29T06:14:07;8.50;99.90
51968;DHT22;75327;42.568;23.176;2024-03-29T06:29:09;9.20;99.90
51968;DHT22;75327;42.568;23.176;2024-03-29T06:44:19;9.70;99.90
51968;DHT22;75327;42.568;23.176;2024-03-29T06:59:20;10.50;99.90
51968;DHT22;75327;42.568;23.176;2024-03-29T07:14:21;11.40;99.90
51968;DHT22;75327;42.568;23.176;2024-03-29T07:29:24;12.20;97.80
51968;DHT22;75327;42.568;23.176;2024-03-29T07:44:25;13.00;96.70
51968;DHT22;75327;42.568;23.176;2024-03-29T07:59:27;13.60;96.70
51968;DHT22;75327;42.568;23.176;2024-03-29T08:14:32;14.20;96.50
51968;DHT22;75327;42.568;23.176;2024-03-29T08:29:33;14.90;98.30
51968;DHT22;75327;42.568;23.176;2024-03-29T08:44:35;15.40;92.50
51968;DHT22;75327;42.568;23.176;2024-03-29T08:59:36;15.80;90.70
51968;DHT22;75327;42.568;23.176;2024-03-29T09:14:38;16.00;89.90
51968;DHT22;75327;42.568;23.176;2024-03-29T09:29:39;16.20;88.40
51968;DHT22;75327;42.568;23.176;2024-03-29T09:44:43;16.30;82.80
51968;DHT22;75327;42.568;23.176;2024-03-29T09:59:52;16.20;74.00
51968;DHT22;75327;42.568;23.176;2024-03-29T10:15:00;16.20;84.70
51968;DHT22;75327;42.568;23.176;2024-03-29T10:30:10;15.80;83.20
51968;DHT22;75327;42.568;23.176;2024-03-29T10:45:11;15.60;79.70
51968;DHT22;75327;42.568;23.176;2024-03-29T11:00:16;15.80;76.80
51968;DHT22;75327;42.568;23.176;2024-03-29T11:15:44;15.90;83.90
51968;DHT22;75327;42.568;23.176;2024-03-29T11:31:03;15.90;78.40
51968;DHT22;75327;42.568;23.176;2024-03-29T11:46:17;15.80;79.80
51968;DHT22;75327;42.568;23.176;2024-03-29T12:01:19;16.00;74.90
51968;DHT22;75327;42.568;23.176;2024-03-29T12:16:21;16.20;77.00
51968;DHT22;75327;42.568;23.176;2024-03-29T12:31:22;16.30;70.10
51968;DHT22;75327;42.568;23.176;2024-03-29T12:46:24;16.50;71.00
51968;DHT22;75327;42.568;23.176;2024-03-29T13:01:25;16.30;71.20
51968;DHT22;75327;42.568;23.176;2024-03-29T13:16:27;16.40;69.80
51968;DHT22;75327;42.568;23.176;2024-03-29T13:31:28;16.30;70.40
51968;DHT22;75327;42.568;23.176;2024-03-29T13:46:29;16.40;71.50
51968;DHT22;75327;42.568;23.176;2024-03-29T14:01:30;16.50;69.50
51968;DHT22;75327;42.568;23.176;2024-03-29T14:17:15;16.60;63.90
51968;DHT22;75327;42.568;23.176;2024-03-29T14:32:16;16.20;69.30
51968;DHT22;75327;42.568;23.176;2024-03-29T14:47:17;16.00;69.50
51968;DHT22;75327;42.568;23.176;2024-03-29T15:02:19;15.90;70.10
51968;DHT22;75327;42.568;23.176;2024-03-29T15:17:20;15.80;74.70
51968;DHT22;75327;42.568;23.176;2024-03-29T15:32:23;15.60;74.60
51968;DHT22;75327;42.568;23.176;2024-03-29T15:47:27;15.60;76.30
51968;DHT22;75327;42.568;23.176;2024-03-29T16:02:28;15.50;76.60
51968;DHT22;75327;42.568;23.176;2024-03-29T16:17:30;15.40;79.90
51968;DHT22;75327;42.568;23.176;2024-03-29T16:32:31;15.20;79.70
51968;DHT22;75327;42.568;23.176;2024-03-29T16:47:32;15.10;77.90
51968;DHT22;75327;42.568;23.176;2024-03-29T17:02:35;14.70;81.30
51968;DHT22;75327;42.568;23.176;2024-03-29T17:17:37;14.40;85.50
51968;DHT22;75327;42.568;23.176;2024-03-29T17:32:39;14.00;89.80
51968;DHT22;75327;42.568;23.176;2024-03-29T17:47:40;13.60;93.00
51968;DHT22;75327;42.568;23.176;2024-03-29T18:02:41;13.40;93.60
51968;DHT22;75327;42.568;23.176;2024-03-29T18:17:42;13.30;93.00
51968;DHT22;75327;42.568;23.176;2024-03-29T18:32:43;13.10;94.30
51968;DHT22;75327;42.568;23.176;2024-03-29T18:47:44;12.90;96.80
51968;DHT22;75327;42.568;23.176;2024-03-29T19:02:45;12.90;96.90
51968;DHT22;75327;42.568;23.176;2024-03-29T19:17:48;12.70;97.70
51968;DHT22;75327;42.568;23.176;2024-03-29T19:33:01;12.60;97.30
51968;DHT22;75327;42.568;23.176;2024-03-29T19:48:05;12.50;97.00
51968;DHT22;75327;42.568;23.176;2024-03-29T20:03:13;12.30;95.90
51968;DHT22;75327;42.568;23.176;2024-03-29T20:18:15;12.30;97.50
51968;DHT22;75327;42.568;23.176;2024-03-29T21:04:02;12.50;95.70
51968;DHT22;75327;42.568;23.176;2024-03-29T21:19:22;12.40;96.50
51968;DHT22;75327;42.568;23.176;2024-03-29T21:34:23;12.40;96.80
51968;DHT22;75327;42.568;23.176;2024-03-29T21:49:24;12.20;98.40
51968;DHT22;75327;42.568;23.176;2024-03-29T22:04:25;11.90;99.20
51968;DHT22;75327;42.568;23.176;2024-03-29T22:19:26;11.70;99.90
51968;DHT22;75327;42.568;23.176;2024-03-29T22:34:28;11.50;99.90
51968;DHT22;75327;42.568;23.176;2024-03-29T22:49:29;11.40;99.90
51968;DHT22;75327;42.568;23.176;2024-03-29T23:04:30;11.50;99.90
51968;DHT22;75327;42.568;23.176;2024-03-29T23:19:32;11.20;99.90
51968;DHT22;75327;42.568;23.176;2024-03-29T23:34:33;11.00;99.90
51968;DHT22;75327;42.568;23.176;2024-03-29T23:49:35;10.80;99.90
